sensor_id;sensor_type;location;lat;lon;timestamp;pressure;altitude;pressure_sealevel;temperature;humidity
30073;BME280;16897;52.422;13.678;2023-04-30T00:00:24;101608.91;;;12.42;48.39
30073;BME280;16897;52.422;13.678;2023-04-30T00:04:26;101616.00;;;12.40;48.15
30073;BME280;16897;52.422;13.678;2023-04-30T00:08:27;101627.88;;;12.47;48.29
30073;BME280;16897;52.422;13.678;2023-04-30T00:12:30;101630.88;;;12.39;48.21
30073;BME280;16897;52.422;13.678;2023-04-30T00:16:32;101615.69;;;12.29;48.17
30073;BME280;16897;52.422;13.678;2023-04-30T00:20:33;101630.47;;;12.30;48.23
30073;BME280;16897;52.422;13.678;2023-04-30T00:24:36;101639.38;;;12.26;48.15
30073;BME280;16897;52.422;13.678;2023-04-30T00:28:37;101643.75;;;12.25;48.22
30073;BME280;16897;52.422;13.678;2023-04-30T00:32:39;101631.19;;;12.14;48.37
30073;BME280;16897;52.422;13.678;2023-04-30T00:36:41;101653.69;;;12.18;48.24
30073;BME280;16897;52.422;13.678;2023-04-30T00:40:42;101616.78;;;11.87;48.30
30073;BME280;16897;52.422;13.678;2023-04-30T00:44:44;101660.28;;;12.08;48.26
30073;BME280;16897;52.422;13.678;2023-04-30T00:48:46;101649.47;;;11.97;48.18
30073;BME280;16897;52.422;13.678;2023-04-30T00:52:49;101653.06;;;11.94;48.17
30073;BME280;16897;52.422;13.678;2023-04-30T00:56:51;101663.59;;;11.93;48.29
30073;BME280;16897;52.422;13.678;2023-04-30T01:00:53;101656.34;;;11.79;48.05
30073;BME280;16897;52.422;13.678;2023-04-30T01:04:55;101674.38;;;11.85;48.20
30073;BME280;16897;52.422;13.678;2023-04-30T01:08:57;101675.72;;;11.75;48.28
30073;BME280;16897;52.422;13.678;2023-04-30T01:13:07;101647.81;;;11.55;48.24
30073;BME280;16897;52.422;13.678;2023-04-30T01:21:29;101680.69;;;11.61;48.13
30073;BME280;16897;52.422;13.678;2023-04-30T01:25:50;101699.63;;;11.67;48.25
30073;BME280;16897;52.422;13.678;2023-04-30T01:29:54;101680.19;;;11.52;48.31
30073;BME280;16897;52.422;13.678;2023-04-30T01:33:56;101695.88;;;11.52;48.28
30073;BME280;16897;52.422;13.678;2023-04-30T01:38:20;101662.16;;;11.26;48.30
30073;BME280;16897;52.422;13.678;2023-04-30T01:42:40;101714.34;;;11.49;48.30
30073;BME280;16897;52.422;13.678;2023-04-30T01:46:43;101700.69;;;11.43;48.20
30073;BME280;16897;52.422;13.678;2023-04-30T01:50:52;101661.00;;;11.13;48.30
30073;BME280;16897;52.422;13.678;2023-04-30T01:59:27;101717.88;;;11.28;48.29
30073;BME280;16897;52.422;13.678;2023-04-30T02:03:28;101718.25;;;11.19;48.32
30073;BME280;16897;52.422;13.678;2023-04-30T02:07:50;101728.84;;;11.16;48.12
30073;BME280;16897;52.422;13.678;2023-04-30T02:11:52;101749.63;;;11.19;48.14
30073;BME280;16897;52.422;13.678;2023-04-30T02:15:54;101753.34;;;11.13;48.11
30073;BME280;16897;52.422;13.678;2023-04-30T02:19:56;101749.38;;;11.04;48.27
30073;BME280;16897;52.422;13.678;2023-04-30T02:23:58;101743.63;;;10.95;48.22
30073;BME280;16897;52.422;13.678;2023-04-30T02:28:00;101755.03;;;10.94;48.18
30073;BME280;16897;52.422;13.678;2023-04-30T02:32:01;101739.81;;;10.81;48.35
30073;BME280;16897;52.422;13.678;2023-04-30T02:36:03;101735.81;;;10.73;48.26
30073;BME280;16897;52.422;13.678;2023-04-30T02:40:05;101718.19;;;10.56;48.24
30073;BME280;16897;52.422;13.678;2023-04-30T02:44:07;101759.13;;;10.77;48.25
30073;BME280;16897;52.422;13.678;2023-04-30T02:48:10;101754.41;;;10.65;48.24
30073;BME280;16897;52.422;13.678;2023-04-30T02:52:11;101771.72;;;10.68;48.21
30073;BME280;16897;52.422;13.678;2023-04-30T02:56:13;101754.09;;;10.51;48.46
30073;BME280;16897;52.422;13.678;2023-04-30T03:00:15;101751.66;;;10.46;48.38
30073;BME280;16897;52.422;13.678;2023-04-30T03:04:18;101776.38;;;10.59;48.40
30073;BME280;16897;52.422;13.678;2023-04-30T03:08:19;101734.16;;;10.25;48.37
30073;BME280;16897;52.422;13.678;2023-04-30T03:12:21;101789.69;;;10.53;48.31
30073;BME280;16897;52.422;13.678;2023-04-30T03:16:22;101787.91;;;10.54;48.41
30073;BME280;16897;52.422;13.678;2023-04-30T03:20:24;101788.88;;;10.51;48.30
30073;BME280;16897;52.422;13.678;2023-04-30T03:24:26;101752.41;;;10.25;48.39
30073;BME280;16897;52.422;13.678;2023-04-30T03:28:28;101744.94;;;10.15;48.27
30073;BME280;16897;52.422;13.678;2023-04-30T03:32:29;101784.34;;;10.33;48.55
30073;BME280;16897;52.422;13.678;2023-04-30T03:36:31;101773.34;;;10.23;48.47
30073;BME280;16897;52.422;13.678;2023-04-30T03:40:34;101792.38;;;10.27;48.45
30073;BME280;16897;52.422;13.678;2023-04-30T03:44:35;101781.56;;;10.12;48.45
30073;BME280;16897;52.422;13.678;2023-04-30T03:48:39;101800.41;;;10.20;48.50
30073;BME280;16897;52.422;13.678;2023-04-30T03:52:41;101788.94;;;10.01;48.43
30073;BME280;16897;52.422;13.678;2023-04-30T03:56:43;101824.03;;;10.17;48.46
30073;BME280;16897;52.422;13.678;2023-04-30T04:00:45;101801.88;;;10.04;48.53
30073;BME280;16897;52.422;13.678;2023-04-30T04:04:48;101826.06;;;10.09;48.42
30073;BME280;16897;52.422;13.678;2023-04-30T04:08:50;101804.72;;;9.98;48.65
30073;BME280;16897;52.422;13.678;2023-04-30T04:12:52;101821.22;;;9.98;48.62
30073;BME280;16897;52.422;13.678;2023-04-30T04:16:54;101775.19;;;9.72;48.46
30073;BME280;16897;52.422;13.678;2023-04-30T04:20:57;101839.53;;;9.97;48.50
30073;BME280;16897;52.422;13.678;2023-04-30T04:24:59;101814.78;;;9.84;48.62
30073;BME280;16897;52.422;13.678;2023-04-30T04:29:03;101849.22;;;9.93;48.47
30073;BME280;16897;52.422;13.678;2023-04-30T04:33:05;101813.38;;;9.73;48.60
30073;BME280;16897;52.422;13.678;2023-04-30T04:37:09;101836.53;;;9.83;48.50
30073;BME280;16897;52.422;13.678;2023-04-30T04:41:11;101860.59;;;9.91;48.66
30073;BME280;16897;52.422;13.678;2023-04-30T04:45:13;101845.50;;;9.75;48.57
30073;BME280;16897;52.422;13.678;2023-04-30T04:49:16;101833.91;;;9.58;48.79
30073;BME280;16897;52.422;13.678;2023-04-30T04:53:17;101886.91;;;9.85;48.57
30073;BME280;16897;52.422;13.678;2023-04-30T04:57:19;101846.84;;;9.61;48.77
30073;BME280;16897;52.422;13.678;2023-04-30T05:01:21;101856.16;;;9.69;48.63
30073;BME280;16897;52.422;13.678;2023-04-30T05:05:22;101861.75;;;9.57;48.66
30073;BME280;16897;52.422;13.678;2023-04-30T05:09:24;101872.94;;;9.61;48.69
30073;BME280;16897;52.422;13.678;2023-04-30T05:13:26;101908.09;;;9.75;48.88
30073;BME280;16897;52.422;13.678;2023-04-30T05:17:27;101917.50;;;9.80;48.90
30073;BME280;16897;52.422;13.678;2023-04-30T05:21:29;101893.53;;;9.68;48.87
30073;BME280;16897;52.422;13.678;2023-04-30T05:25:32;101926.97;;;9.84;48.94
30073;BME280;16897;52.422;13.678;2023-04-30T05:29:34;101913.16;;;9.80;48.95
30073;BME280;16897;52.422;13.678;2023-04-30T05:33:35;101884.19;;;9.61;48.84
30073;BME280;16897;52.422;13.678;2023-04-30T05:37:37;101924.47;;;9.81;48.99
30073;BME280;16897;52.422;13.678;2023-04-30T05:41:38;101933.00;;;9.86;48.85
30073;BME280;16897;52.422;13.678;2023-04-30T05:45:40;101933.03;;;9.84;48.98
30073;BME280;16897;52.422;13.678;2023-04-30T05:49:41;101942.31;;;9.93;48.95
30073;BME280;16897;52.422;13.678;2023-04-30T05:53:43;101933.41;;;9.98;49.16
30073;BME280;16897;52.422;13.678;2023-04-30T05:57:44;101953.56;;;10.20;49.27
30073;BME280;16897;52.422;13.678;2023-04-30T06:01:46;101912.41;;;10.03;49.23
30073;BME280;16897;52.422;13.678;2023-04-30T06:05:47;101953.94;;;10.36;49.21
30073;BME280;16897;52.422;13.678;2023-04-30T06:09:49;101939.81;;;10.41;49.28
30073;BME280;16897;52.422;13.678;2023-04-30T06:13:51;101951.03;;;10.45;49.07
30073;BME280;16897;52.422;13.678;2023-04-30T06:17:52;101944.94;;;10.45;49.13
30073;BME280;16897;52.422;13.678;2023-04-30T06:21:54;101959.22;;;10.59;49.15
30073;BME280;16897;52.422;13.678;2023-04-30T06:25:56;101969.34;;;10.69;49.19
30073;BME280;16897;52.422;13.678;2023-04-30T06:29:57;101967.28;;;10.77;49.12
30073;BME280;16897;52.422;13.678;2023-04-30T06:34:01;101964.66;;;10.78;49.18
30073;BME280;16897;52.422;13.678;2023-04-30T06:38:02;101919.13;;;10.60;49.22
30073;BME280;16897;52.422;13.678;2023-04-30T06:42:04;101956.66;;;10.83;49.07
30073;BME280;16897;52.422;13.678;2023-04-30T06:46:07;101982.19;;;10.98;49.07
30073;BME280;16897;52.422;13.678;2023-04-30T06:50:09;101953.00;;;10.87;49.15
30073;BME280;16897;52.422;13.678;2023-04-30T06:54:11;101965.06;;;10.91;48.99
30073;BME280;16897;52.422;13.678;2023-04-30T06:58:13;101929.84;;;10.78;48.99
30073;BME280;16897;52.422;13.678;2023-04-30T07:02:14;101966.19;;;11.07;49.05
30073;BME280;16897;52.422;13.678;2023-04-30T07:06:16;101978.09;;;11.15;49.20
30073;BME280;16897;52.422;13.678;2023-04-30T07:10:17;101954.13;;;11.03;48.99
30073;BME280;16897;52.422;13.678;2023-04-30T07:14:19;101988.84;;;11.30;49.09
30073;BME280;16897;52.422;13.678;2023-04-30T07:18:21;101972.56;;;11.24;49.29
30073;BME280;16897;52.422;13.678;2023-04-30T07:22:23;101929.53;;;11.09;49.21
30073;BME280;16897;52.422;13.678;2023-04-30T07:26:25;101947.06;;;11.29;49.23
30073;BME280;16897;52.422;13.678;2023-04-30T07:30:26;101976.34;;;11.61;49.29
30073;BME280;16897;52.422;13.678;2023-04-30T07:34:28;101984.50;;;11.75;49.33
30073;BME280;16897;52.422;13.678;2023-04-30T07:38:29;101932.66;;;11.63;49.22
30073;BME280;16897;52.422;13.678;2023-04-30T07:42:31;101985.25;;;12.01;49.42
30073;BME280;16897;52.422;13.678;2023-04-30T07:46:33;101935.34;;;11.83;49.19
30073;BME280;16897;52.422;13.678;2023-04-30T07:50:36;101983.50;;;12.22;49.41
30073;BME280;16897;52.422;13.678;2023-04-30T07:54:37;101978.66;;;12.33;49.25
30073;BME280;16897;52.422;13.678;2023-04-30T07:58:40;101979.44;;;12.55;49.37
30073;BME280;16897;52.422;13.678;2023-04-30T08:02:42;101987.50;;;12.71;49.34
30073;BME280;16897;52.422;13.678;2023-04-30T08:06:48;101990.44;;;12.84;49.36
30073;BME280;16897;52.422;13.678;2023-04-30T08:10:50;101996.50;;;13.05;49.33
30073;BME280;16897;52.422;13.678;2023-04-30T08:15:04;101990.81;;;13.14;49.39
30073;BME280;16897;52.422;13.678;2023-04-30T08:19:06;101995.56;;;13.25;49.27
30073;BME280;16897;52.422;13.678;2023-04-30T08:23:08;101959.34;;;13.14;49.21
30073;BME280;16897;52.422;13.678;2023-04-30T08:27:10;101992.69;;;13.50;49.33
30073;BME280;16897;52.422;13.678;2023-04-30T08:31:12;101983.47;;;13.60;49.28
30073;BME280;16897;52.422;13.678;2023-04-30T08:35:13;101983.56;;;13.76;49.10
30073;BME280;16897;52.422;13.678;2023-04-30T08:39:17;101984.41;;;13.77;48.93
30073;BME280;16897;52.422;13.678;2023-04-30T08:43:19;101995.88;;;13.93;48.99
30073;BME280;16897;52.422;13.678;2023-04-30T08:47:21;102005.47;;;14.11;49.18
30073;BME280;16897;52.422;13.678;2023-04-30T08:51:29;101992.66;;;14.23;49.01
30073;BME280;16897;52.422;13.678;2023-04-30T08:55:31;102003.63;;;14.31;49.02
30073;BME280;16897;52.422;13.678;2023-04-30T08:59:34;101992.50;;;14.43;48.98
30073;BME280;16897;52.422;13.678;2023-04-30T09:03:36;101973.09;;;14.46;49.00
30073;BME280;16897;52.422;13.678;2023-04-30T09:07:42;101991.59;;;14.62;48.79
30073;BME280;16897;52.422;13.678;2023-04-30T09:11:43;101987.47;;;14.73;48.77
30073;BME280;16897;52.422;13.678;2023-04-30T09:15:49;102005.31;;;14.84;48.80
30073;BME280;16897;52.422;13.678;2023-04-30T09:19:52;102003.28;;;14.89;48.86
30073;BME280;16897;52.422;13.678;2023-04-30T09:23:56;102003.06;;;14.94;48.76
30073;BME280;16897;52.422;13.678;2023-04-30T09:28:11;102000.94;;;15.00;48.69
30073;BME280;16897;52.422;13.678;2023-04-30T09:32:13;102009.97;;;15.12;48.73
30073;BME280;16897;52.422;13.678;2023-04-30T09:36:15;102017.13;;;15.26;48.44
30073;BME280;16897;52.422;13.678;2023-04-30T09:40:17;101968.91;;;15.10;48.45
30073;BME280;16897;52.422;13.678;2023-04-30T09:44:35;101993.28;;;15.29;48.24
30073;BME280;16897;52.422;13.678;2023-04-30T09:48:37;102000.47;;;15.41;48.35
30073;BME280;16897;52.422;13.678;2023-04-30T09:52:52;102005.41;;;15.63;48.40
30073;BME280;16897;52.422;13.678;2023-04-30T09:56:57;101994.78;;;15.65;48.10
30073;BME280;16897;52.422;13.678;2023-04-30T10:00:58;101994.16;;;15.77;48.15
30073;BME280;16897;52.422;13.678;2023-04-30T10:05:01;101991.75;;;15.88;48.12
30073;BME280;16897;52.422;13.678;2023-04-30T10:09:03;101983.56;;;15.93;47.98
30073;BME280;16897;52.422;13.678;2023-04-30T10:13:06;101988.66;;;15.96;47.72
30073;BME280;16897;52.422;13.678;2023-04-30T10:17:13;101976.34;;;15.97;47.80
30073;BME280;16897;52.422;13.678;2023-04-30T10:21:15;101967.31;;;16.01;47.60
30073;BME280;16897;52.422;13.678;2023-04-30T10:25:17;101983.25;;;16.13;47.70
30073;BME280;16897;52.422;13.678;2023-04-30T10:29:20;101966.34;;;16.18;47.61
30073;BME280;16897;52.422;13.678;2023-04-30T10:33:40;101965.03;;;16.25;47.79
30073;BME280;16897;52.422;13.678;2023-04-30T10:37:47;101974.34;;;16.30;47.57
30073;BME280;16897;52.422;13.678;2023-04-30T10:42:00;101971.84;;;16.43;47.22
30073;BME280;16897;52.422;13.678;2023-04-30T10:46:02;101953.84;;;16.35;47.30
30073;BME280;16897;52.422;13.678;2023-04-30T10:50:08;101968.56;;;16.54;47.49
30073;BME280;16897;52.422;13.678;2023-04-30T10:54:10;101965.91;;;16.54;47.25
30073;BME280;16897;52.422;13.678;2023-04-30T10:58:29;101961.88;;;16.63;47.07
30073;BME280;16897;52.422;13.678;2023-04-30T11:02:44;101970.84;;;16.74;46.85
30073;BME280;16897;52.422;13.678;2023-04-30T11:06:49;101955.75;;;16.76;47.06
30073;BME280;16897;52.422;13.678;2023-04-30T11:10:58;101960.50;;;16.86;47.14
30073;BME280;16897;52.422;13.678;2023-04-30T11:15:17;101959.91;;;16.95;46.61
30073;BME280;16897;52.422;13.678;2023-04-30T11:19:19;101959.91;;;16.95;46.55
30073;BME280;16897;52.422;13.678;2023-04-30T11:23:24;101956.34;;;16.96;46.58
30073;BME280;16897;52.422;13.678;2023-04-30T11:27:27;101907.38;;;16.77;46.40
30073;BME280;16897;52.422;13.678;2023-04-30T11:31:33;101936.81;;;16.98;46.39
30073;BME280;16897;52.422;13.678;2023-04-30T11:35:35;101950.28;;;17.08;46.37
30073;BME280;16897;52.422;13.678;2023-04-30T11:39:36;101938.06;;;17.07;46.30
30073;BME280;16897;52.422;13.678;2023-04-30T11:43:38;101940.28;;;17.13;45.78
30073;BME280;16897;52.422;13.678;2023-04-30T11:47:51;101950.09;;;17.25;46.11
30073;BME280;16897;52.422;13.678;2023-04-30T11:51:54;101901.09;;;17.07;45.91
30073;BME280;16897;52.422;13.678;2023-04-30T11:55:56;101937.97;;;17.36;45.90
30073;BME280;16897;52.422;13.678;2023-04-30T12:00:06;101941.91;;;17.43;45.71
30073;BME280;16897;52.422;13.678;2023-04-30T12:04:10;101938.44;;;17.42;45.89
30073;BME280;16897;52.422;13.678;2023-04-30T12:08:12;101929.66;;;17.42;45.77
30073;BME280;16897;52.422;13.678;2023-04-30T12:12:14;101929.47;;;17.45;45.54
30073;BME280;16897;52.422;13.678;2023-04-30T12:16:27;101930.09;;;17.48;45.62
30073;BME280;16897;52.422;13.678;2023-04-30T12:20:30;101937.41;;;17.58;45.56
30073;BME280;16897;52.422;13.678;2023-04-30T12:24:32;101924.97;;;17.60;45.30
30073;BME280;16897;52.422;13.678;2023-04-30T12:28:34;101929.00;;;17.65;45.45
30073;BME280;16897;52.422;13.678;2023-04-30T12:32:43;101927.66;;;17.73;45.47
30073;BME280;16897;52.422;13.678;2023-04-30T12:36:45;101914.06;;;17.79;45.20
30073;BME280;16897;52.422;13.678;2023-04-30T12:40:47;101915.91;;;17.77;45.08
30073;BME280;16897;52.422;13.678;2023-04-30T12:44:51;101919.38;;;17.91;45.08
30073;BME280;16897;52.422;13.678;2023-04-30T12:48:53;101891.16;;;17.92;45.21
30073;BME280;16897;52.422;13.678;2023-04-30T12:52:55;101896.97;;;17.97;45.19
30073;BME280;16897;52.422;13.678;2023-04-30T12:57:03;101905.22;;;18.05;45.21
30073;BME280;16897;52.422;13.678;2023-04-30T13:01:09;101865.69;;;17.91;45.03
30073;BME280;16897;52.422;13.678;2023-04-30T13:05:11;101900.56;;;18.09;44.88
30073;BME280;16897;52.422;13.678;2023-04-30T13:09:12;101861.16;;;17.93;45.01
30073;BME280;16897;52.422;13.678;2023-04-30T13:13:14;101893.50;;;18.09;44.89
30073;BME280;16897;52.422;13.678;2023-04-30T13:17:16;101897.84;;;18.10;44.96
30073;BME280;16897;52.422;13.678;2023-04-30T13:21:18;101886.50;;;18.08;45.04
30073;BME280;16897;52.422;13.678;2023-04-30T13:25:20;101900.03;;;18.17;44.81
30073;BME280;16897;52.422;13.678;2023-04-30T13:29:22;101857.84;;;18.02;44.76
30073;BME280;16897;52.422;13.678;2023-04-30T13:33:24;101871.50;;;18.22;44.53
30073;BME280;16897;52.422;13.678;2023-04-30T13:37:25;101875.63;;;18.26;44.71
30073;BME280;16897;52.422;13.678;2023-04-30T13:41:27;101883.97;;;18.32;44.40
30073;BME280;16897;52.422;13.678;2023-04-30T13:45:28;101843.78;;;18.14;44.36
30073;BME280;16897;52.422;13.678;2023-04-30T13:49:30;101839.53;;;18.25;44.49
30073;BME280;16897;52.422;13.678;2023-04-30T13:53:32;101876.66;;;18.49;44.56
30073;BME280;16897;52.422;13.678;2023-04-30T13:57:33;101861.44;;;18.52;44.53
30073;BME280;16897;52.422;13.678;2023-04-30T14:01:35;101869.69;;;18.61;44.02
30073;BME280;16897;52.422;13.678;2023-04-30T14:05:37;101834.56;;;18.33;44.09
30073;BME280;16897;52.422;13.678;2023-04-30T14:09:39;101860.91;;;18.47;43.83
30073;BME280;16897;52.422;13.678;2023-04-30T14:13:40;101863.56;;;18.47;44.00
30073;BME280;16897;52.422;13.678;2023-04-30T14:17:42;101852.75;;;18.50;44.21
30073;BME280;16897;52.422;13.678;2023-04-30T14:21:43;101834.47;;;18.47;43.80
30073;BME280;16897;52.422;13.678;2023-04-30T14:25:45;101817.75;;;18.34;43.99
30073;BME280;16897;52.422;13.678;2023-04-30T14:29:46;101827.38;;;18.48;43.84
30073;BME280;16897;52.422;13.678;2023-04-30T14:33:48;101843.00;;;18.64;43.75
30073;BME280;16897;52.422;13.678;2023-04-30T14:37:49;101832.50;;;18.62;43.82
30073;BME280;16897;52.422;13.678;2023-04-30T14:41:51;101843.59;;;18.67;43.31
30073;BME280;16897;52.422;13.678;2023-04-30T14:45:53;101839.47;;;18.63;43.53
30073;BME280;16897;52.422;13.678;2023-04-30T14:49:54;101831.34;;;18.66;43.56
30073;BME280;16897;52.422;13.678;2023-04-30T14:53:57;101831.97;;;18.70;43.22
30073;BME280;16897;52.422;13.678;2023-04-30T14:57:59;101828.59;;;18.55;42.76
30073;BME280;16897;52.422;13.678;2023-04-30T15:02:01;101830.75;;;18.50;42.66
30073;BME280;16897;52.422;13.678;2023-04-30T15:06:02;101791.13;;;18.24;43.00
30073;BME280;16897;52.422;13.678;2023-04-30T15:10:04;101818.91;;;18.43;43.07
30073;BME280;16897;52.422;13.678;2023-04-30T15:14:07;101835.47;;;18.57;42.60
30073;BME280;16897;52.422;13.678;2023-04-30T15:18:08;101822.47;;;18.54;42.79
30073;BME280;16897;52.422;13.678;2023-04-30T15:22:11;101818.38;;;18.50;42.44
30073;BME280;16897;52.422;13.678;2023-04-30T15:26:12;101794.06;;;18.32;42.30
30073;BME280;16897;52.422;13.678;2023-04-30T15:30:14;101825.25;;;18.53;42.50
30073;BME280;16897;52.422;13.678;2023-04-30T15:34:16;101817.72;;;18.47;42.46
30073;BME280;16897;52.422;13.678;2023-04-30T15:38:18;101824.41;;;18.52;42.53
30073;BME280;16897;52.422;13.678;2023-04-30T15:42:20;101827.53;;;18.57;42.41
30073;BME280;16897;52.422;13.678;2023-04-30T15:46:21;101805.56;;;18.44;42.56
30073;BME280;16897;52.422;13.678;2023-04-30T15:50:23;101817.91;;;18.56;42.19
30073;BME280;16897;52.422;13.678;2023-04-30T15:54:25;101825.63;;;18.60;42.36
30073;BME280;16897;52.422;13.678;2023-04-30T15:58:26;101810.84;;;18.44;42.16
30073;BME280;16897;52.422;13.678;2023-04-30T16:02:28;101831.47;;;18.52;41.97
30073;BME280;16897;52.422;13.678;2023-04-30T16:06:30;101813.31;;;18.47;42.00
30073;BME280;16897;52.422;13.678;2023-04-30T16:10:32;101785.50;;;18.29;41.88
30073;BME280;16897;52.422;13.678;2023-04-30T16:14:34;101818.59;;;18.47;42.19
30073;BME280;16897;52.422;13.678;2023-04-30T16:18:35;101792.47;;;18.30;42.21
30073;BME280;16897;52.422;13.678;2023-04-30T16:22:36;101810.97;;;18.43;41.99
30073;BME280;16897;52.422;13.678;2023-04-30T16:26:38;101792.16;;;18.34;41.96
30073;BME280;16897;52.422;13.678;2023-04-30T16:30:40;101796.19;;;18.27;41.54
30073;BME280;16897;52.422;13.678;2023-04-30T16:34:42;101800.53;;;18.28;41.46
30073;BME280;16897;52.422;13.678;2023-04-30T16:38:44;101808.56;;;18.27;41.59
30073;BME280;16897;52.422;13.678;2023-04-30T16:42:46;101793.13;;;18.21;41.54
30073;BME280;16897;52.422;13.678;2023-04-30T16:46:48;101808.88;;;18.22;41.43
30073;BME280;16897;52.422;13.678;2023-04-30T16:50:49;101794.28;;;18.17;41.78
30073;BME280;16897;52.422;13.678;2023-04-30T16:54:51;101781.72;;;18.07;41.62
30073;BME280;16897;52.422;13.678;2023-04-30T16:58:52;101773.72;;;17.96;41.24
30073;BME280;16897;52.422;13.678;2023-04-30T17:02:55;101792.75;;;18.01;41.54
30073;BME280;16897;52.422;13.678;2023-04-30T17:06:56;101785.75;;;17.87;41.23
30073;BME280;16897;52.422;13.678;2023-04-30T17:10:59;101783.53;;;17.81;41.36
30073;BME280;16897;52.422;13.678;2023-04-30T17:15:01;101780.22;;;17.78;41.29
30073;BME280;16897;52.422;13.678;2023-04-30T17:19:04;101753.47;;;17.57;41.18
30073;BME280;16897;52.422;13.678;2023-04-30T17:23:06;101771.53;;;17.63;41.22
30073;BME280;16897;52.422;13.678;2023-04-30T17:27:08;101792.28;;;17.69;41.35
30073;BME280;16897;52.422;13.678;2023-04-30T17:31:09;101782.53;;;17.57;41.16
30073;BME280;16897;52.422;13.678;2023-04-30T17:35:11;101796.28;;;17.62;41.06
30073;BME280;16897;52.422;13.678;2023-04-30T17:39:12;101784.63;;;17.52;41.17
30073;BME280;16897;52.422;13.678;2023-04-30T17:43:14;101798.16;;;17.60;40.96
30073;BME280;16897;52.422;13.678;2023-04-30T17:47:16;101793.31;;;17.54;41.00
30073;BME280;16897;52.422;13.678;2023-04-30T17:51:18;101785.06;;;17.45;41.00
30073;BME280;16897;52.422;13.678;2023-04-30T17:55:20;101790.97;;;17.49;40.92
30073;BME280;16897;52.422;13.678;2023-04-30T17:59:22;101792.97;;;17.45;41.13
30073;BME280;16897;52.422;13.678;2023-04-30T18:03:23;101777.22;;;17.31;41.20
30073;BME280;16897;52.422;13.678;2023-04-30T18:07:25;101778.38;;;17.27;41.22
30073;BME280;16897;52.422;13.678;2023-04-30T18:11:27;101749.16;;;17.03;41.13
30073;BME280;16897;52.422;13.678;2023-04-30T18:15:28;101795.53;;;17.20;41.12
30073;BME280;16897;52.422;13.678;2023-04-30T18:19:29;101795.19;;;17.12;40.90
30073;BME280;16897;52.422;13.678;2023-04-30T18:23:31;101777.50;;;16.87;40.89
30073;BME280;16897;52.422;13.678;2023-04-30T18:27:32;101737.25;;;16.56;40.80
30073;BME280;16897;52.422;13.678;2023-04-30T18:31:34;101800.81;;;16.80;40.85
30073;BME280;16897;52.422;13.678;2023-04-30T18:35:37;101793.75;;;16.66;41.04
30073;BME280;16897;52.422;13.678;2023-04-30T18:39:38;101785.00;;;16.51;40.88
30073;BME280;16897;52.422;13.678;2023-04-30T18:43:40;101808.94;;;16.48;40.87
30073;BME280;16897;52.422;13.678;2023-04-30T18:47:43;101797.72;;;16.30;41.08
30073;BME280;16897;52.422;13.678;2023-04-30T18:51:44;101801.34;;;16.15;40.79
30073;BME280;16897;52.422;13.678;2023-04-30T18:55:46;101803.75;;;16.04;40.78
30073;BME280;16897;52.422;13.678;2023-04-30T18:59:47;101814.03;;;15.94;40.88
30073;BME280;16897;52.422;13.678;2023-04-30T19:03:49;101810.22;;;15.69;40.81
30073;BME280;16897;52.422;13.678;2023-04-30T19:07:51;101826.88;;;15.70;40.69
30073;BME280;16897;52.422;13.678;2023-04-30T19:11:52;101815.00;;;15.47;40.71
30073;BME280;16897;52.422;13.678;2023-04-30T19:15:54;101792.34;;;15.14;40.76
30073;BME280;16897;52.422;13.678;2023-04-30T19:19:56;101822.88;;;15.17;40.80
30073;BME280;16897;52.422;13.678;2023-04-30T19:23:59;101823.78;;;15.01;40.56
30073;BME280;16897;52.422;13.678;2023-04-30T19:28:00;101830.66;;;14.88;40.59
30073;BME280;16897;52.422;13.678;2023-04-30T19:32:01;101805.72;;;14.64;40.68
30073;BME280;16897;52.422;13.678;2023-04-30T19:36:04;101814.63;;;14.61;40.93
30073;BME280;16897;52.422;13.678;2023-04-30T19:40:09;101842.44;;;14.65;40.77
30073;BME280;16897;52.422;13.678;2023-04-30T19:44:16;101817.81;;;14.50;40.80
30073;BME280;16897;52.422;13.678;2023-04-30T19:48:19;101829.41;;;14.46;40.81
30073;BME280;16897;52.422;13.678;2023-04-30T19:52:21;101835.84;;;14.41;40.79
30073;BME280;16897;52.422;13.678;2023-04-30T19:56:22;101794.44;;;14.12;40.73
30073;BME280;16897;52.422;13.678;2023-04-30T20:00:27;101833.84;;;14.28;40.77
30073;BME280;16897;52.422;13.678;2023-04-30T20:04:29;101821.59;;;14.11;40.85
30073;BME280;16897;52.422;13.678;2023-04-30T20:08:31;101835.44;;;14.15;40.89
30073;BME280;16897;52.422;13.678;2023-04-30T20:12:32;101826.34;;;14.05;40.83
30073;BME280;16897;52.422;13.678;2023-04-30T20:16:34;101823.34;;;13.95;41.00
30073;BME280;16897;52.422;13.678;2023-04-30T20:20:35;101826.28;;;13.89;40.96
30073;BME280;16897;52.422;13.678;2023-04-30T20:24:40;101839.09;;;13.95;41.02
30073;BME280;16897;52.422;13.678;2023-04-30T20:28:44;101817.50;;;13.72;41.03
30073;BME280;16897;52.422;13.678;2023-04-30T20:32:46;101830.78;;;13.69;41.01
30073;BME280;16897;52.422;13.678;2023-04-30T20:36:50;101844.81;;;13.68;41.17
30073;BME280;16897;52.422;13.678;2023-04-30T20:40:53;101836.63;;;13.57;41.15
30073;BME280;16897;52.422;13.678;2023-04-30T20:44:55;101768.72;;;13.15;41.04
30073;BME280;16897;52.422;13.678;2023-04-30T20:48:59;101845.59;;;13.53;41.15
30073;BME280;16897;52.422;13.678;2023-04-30T20:53:04;101828.91;;;13.37;41.13
30073;BME280;16897;52.422;13.678;2023-04-30T20:57:06;101849.75;;;13.40;41.13
30073;BME280;16897;52.422;13.678;2023-04-30T21:01:11;101822.66;;;13.20;41.07